createdAt,value
2017-08-11T00:00:13.628Z,100926.42
2017-08-11T00:02:41.936Z,100906.78
2017-08-11T00:05:09.844Z,100919.13
2017-08-11T00:07:37.755Z,100912.99
2017-08-11T00:10:05.650Z,100891.51
2017-08-11T00:12:33.751Z,100902.14
2017-08-11T00:15:01.660Z,100887.30
2017-08-11T00:17:29.963Z,100879.86
2017-08-11T00:19:57.866Z,100851.48
2017-08-11T00:22:25.775Z,100833.19
2017-08-11T00:24:53.687Z,100830.13
2017-08-11T00:27:21.592Z,100828.37
2017-08-11T00:29:49.503Z,100830.52
2017-08-11T00:32:17.401Z,100832.27
2017-08-11T00:34:46.384Z,100816.10
2017-08-11T00:37:14.759Z,100803.83
2017-08-11T00:39:43.117Z,100793.77
2017-08-11T00:42:11.470Z,100798.58
2017-08-11T00:44:40.233Z,100796.82
2017-08-11T00:47:08.696Z,100799.41
2017-08-11T00:49:37.049Z,100790.65
2017-08-11T00:52:05.407Z,100788.02
2017-08-11T00:54:33.762Z,100794.15
2017-08-11T00:57:02.120Z,100785.38
2017-08-11T00:59:30.478Z,100795.84
2017-08-11T01:01:58.835Z,100788.00
2017-08-11T01:04:27.179Z,100772.61
2017-08-11T01:06:55.719Z,100771.31
2017-08-11T01:09:24.081Z,100762.98
2017-08-11T01:11:52.437Z,100762.15
2017-08-11T01:14:21.256Z,100770.44
2017-08-11T01:16:49.606Z,100765.61
2017-08-11T01:19:18.355Z,100748.95
2017-08-11T01:21:46.709Z,100748.07
2017-08-11T01:24:15.071Z,100732.72
2017-08-11T01:26:43.428Z,100726.16
2017-08-11T01:29:12.184Z,100715.64
2017-08-11T01:31:40.541Z,100712.58
2017-08-11T01:34:08.899Z,100699.88
2017-08-11T01:36:37.246Z,100697.68
2017-08-11T01:39:06.003Z,100696.28
2017-08-11T01:41:34.342Z,100691.95
2017-08-11T01:44:03.080Z,100685.31
2017-08-11T01:46:31.432Z,100695.40
2017-08-11T01:48:59.788Z,100692.30
2017-08-11T01:51:28.142Z,100669.55
2017-08-11T01:53:56.509Z,100656.89
2017-08-11T01:56:24.868Z,100650.25
2017-08-11T01:58:53.223Z,100659.42
2017-08-11T02:01:21.867Z,100667.68
2017-08-11T02:03:50.621Z,100665.47
2017-08-11T02:06:18.979Z,100660.17
2017-08-11T02:08:47.335Z,100644.33
2017-08-11T02:11:16.306Z,100654.41
2017-08-11T02:13:45.055Z,100646.95
2017-08-11T02:16:13.404Z,100646.05
2017-08-11T02:18:41.777Z,100640.79
2017-08-11T02:21:10.136Z,100629.40
2017-08-11T02:23:39.224Z,100628.05
2017-08-11T02:26:07.976Z,100638.14
2017-08-11T02:28:36.341Z,100651.20
2017-08-11T02:31:04.701Z,100656.04
2017-08-11T02:33:33.063Z,100656.01
2017-08-11T02:36:01.831Z,100647.65
2017-08-11T02:38:30.183Z,100641.95
2017-08-11T02:40:58.549Z,100634.86
2017-08-11T02:43:27.144Z,100646.69
2017-08-11T02:45:55.499Z,100628.22
2017-08-11T02:48:23.862Z,100626.92
2017-08-11T02:50:52.215Z,100622.55
2017-08-11T02:53:20.958Z,100625.18
2017-08-11T02:55:49.319Z,100629.99
2017-08-11T02:58:17.675Z,100636.58
2017-08-11T03:00:46.441Z,100647.09
2017-08-11T03:03:14.798Z,100638.62
2017-08-11T03:05:43.159Z,100639.38
2017-08-11T03:08:11.524Z,100632.89
2017-08-11T03:10:39.878Z,100643.00
2017-08-11T03:13:08.235Z,100651.64
2017-08-11T03:15:36.635Z,100656.00
2017-08-11T03:18:05.380Z,100652.90
2017-08-11T03:20:33.955Z,100650.59
2017-08-11T03:23:02.323Z,100649.70
2017-08-11T03:25:30.717Z,100645.51
2017-08-11T03:27:59.074Z,100648.45
2017-08-11T03:30:27.436Z,100649.61
2017-08-11T03:32:55.805Z,100653.91
2017-08-11T03:35:24.568Z,100639.88
2017-08-11T03:37:52.940Z,100643.03
2017-08-11T03:40:21.296Z,100637.77
2017-08-11T03:42:49.873Z,100625.12
2017-08-11T03:45:18.233Z,100616.37
2017-08-11T03:47:46.589Z,100605.80
2017-08-11T03:50:15.343Z,100615.33
2017-08-11T03:52:43.696Z,100617.03
2017-08-11T03:55:12.051Z,100607.88
2017-08-11T03:57:40.398Z,100607.03
2017-08-11T04:00:08.760Z,100600.03
2017-08-11T04:02:37.377Z,100594.30
2017-08-11T04:05:06.136Z,100598.62
2017-08-11T04:07:34.497Z,100602.01
2017-08-11T04:10:03.425Z,100605.80
2017-08-11T04:12:31.789Z,100616.16
2017-08-11T04:15:00.603Z,100619.00
2017-08-11T04:17:29.365Z,100617.00
2017-08-11T04:19:57.707Z,100616.30
2017-08-11T04:22:26.067Z,100616.56
2017-08-11T04:24:54.420Z,100608.64
2017-08-11T04:27:22.779Z,100610.06
2017-08-11T04:29:51.141Z,100607.61
2017-08-11T04:32:19.504Z,100610.63
2017-08-11T04:34:47.860Z,100612.86
2017-08-11T04:37:16.227Z,100613.73
2017-08-11T04:39:44.971Z,100611.03
2017-08-11T04:42:13.324Z,100600.85
2017-08-11T04:44:41.707Z,100604.47
2017-08-11T04:47:10.050Z,100600.19
2017-08-11T04:49:38.803Z,100594.02
2017-08-11T04:52:07.181Z,100594.80
2017-08-11T04:54:35.540Z,100588.08
2017-08-11T04:57:03.891Z,100586.69
2017-08-11T04:59:32.511Z,100586.61
2017-08-11T05:02:00.880Z,100590.69
2017-08-11T05:07:02.830Z,100597.55
2017-08-11T05:09:31.193Z,100604.49
2017-08-11T05:11:59.544Z,100604.93
2017-08-11T05:14:27.895Z,100602.77
2017-08-11T05:16:56.264Z,100605.78
2017-08-11T05:19:24.654Z,100603.19
2017-08-11T05:21:53.370Z,100605.83
2017-08-11T05:24:21.729Z,100607.86
2017-08-11T05:26:50.074Z,100601.23
2017-08-11T05:29:18.864Z,100592.16
2017-08-11T05:31:47.625Z,100591.98
2017-08-11T05:34:15.986Z,100601.59
2017-08-11T05:36:44.340Z,100588.78
2017-08-11T05:39:12.704Z,100594.29
2017-08-11T05:41:41.057Z,100592.80
2017-08-11T05:44:09.816Z,100584.84
2017-08-11T05:46:38.169Z,100586.44
2017-08-11T05:49:06.668Z,100576.08
2017-08-11T05:51:35.020Z,100577.88
2017-08-11T05:54:03.371Z,100577.94
2017-08-11T05:56:32.119Z,100576.16
2017-08-11T05:59:00.482Z,100573.44
2017-08-11T06:01:28.864Z,100581.94
2017-08-11T06:03:57.229Z,100586.25
2017-08-11T06:06:25.582Z,100593.05
2017-08-11T06:08:53.941Z,100588.78
2017-08-11T06:11:22.295Z,100591.89
2017-08-11T06:13:50.649Z,100599.56
2017-08-11T06:16:19.248Z,100591.84
2017-08-11T06:18:47.605Z,100586.05
2017-08-11T06:21:15.969Z,100585.84
2017-08-11T06:23:44.327Z,100581.67
2017-08-11T06:26:12.679Z,100581.30
2017-08-11T06:28:41.040Z,100577.37
2017-08-11T06:31:09.391Z,100570.67
2017-08-11T06:33:37.762Z,100574.45
2017-08-11T06:36:06.121Z,100583.49
2017-08-11T06:38:34.876Z,100590.06
2017-08-11T06:41:03.237Z,100589.41
2017-08-11T06:43:31.605Z,100591.16
2017-08-11T06:45:59.989Z,100600.33
2017-08-11T06:48:28.344Z,100603.58
2017-08-11T06:50:57.016Z,100616.08
2017-08-11T06:53:25.787Z,100621.53
2017-08-11T06:55:54.144Z,100630.43
2017-08-11T06:58:22.497Z,100625.62
2017-08-11T07:00:50.863Z,100629.18
2017-08-11T07:03:19.253Z,100628.81
2017-08-11T07:05:47.626Z,100619.27
2017-08-11T07:08:15.986Z,100614.58
2017-08-11T07:10:44.753Z,100614.45
2017-08-11T07:13:13.102Z,100606.76
2017-08-11T07:15:41.579Z,100608.11
2017-08-11T07:18:09.931Z,100604.35
2017-08-11T07:20:38.342Z,100596.57
2017-08-11T07:23:06.716Z,100595.73
2017-08-11T07:25:35.064Z,100591.62
2017-08-11T07:28:03.440Z,100585.45
2017-08-11T07:30:32.188Z,100579.05
2017-08-11T07:33:00.548Z,100576.58
2017-08-11T07:35:29.664Z,100577.98
2017-08-11T07:37:58.037Z,100572.65
2017-08-11T07:40:26.388Z,100556.34
2017-08-11T07:42:54.753Z,100559.39
2017-08-11T07:45:23.107Z,100571.77
2017-08-11T07:47:51.847Z,100585.71
2017-08-11T07:50:20.772Z,100579.31
2017-08-11T07:52:49.123Z,100583.38
2017-08-11T07:55:17.478Z,100582.42
2017-08-11T07:57:45.822Z,100593.45
2017-08-11T08:00:14.575Z,100605.12
2017-08-11T08:02:42.928Z,100617.32
2017-08-11T08:05:11.288Z,100621.82
2017-08-11T08:07:39.652Z,100625.93
2017-08-11T08:10:08.592Z,100633.39
2017-08-11T08:12:36.953Z,100631.56
2017-08-11T08:15:05.309Z,100630.20
2017-08-11T08:17:34.068Z,100647.42
2017-08-11T08:20:02.844Z,100648.75
2017-08-11T08:22:31.204Z,100658.89
2017-08-11T08:24:59.566Z,100659.95
2017-08-11T08:27:27.931Z,100663.17
2017-08-11T08:29:56.294Z,100660.46
2017-08-11T08:32:25.043Z,100652.97
2017-08-11T08:34:53.400Z,100660.94
2017-08-11T08:37:21.764Z,100658.27
2017-08-11T08:39:50.154Z,100665.98
2017-08-11T08:42:18.508Z,100678.05
2017-08-11T08:44:47.352Z,100678.08
2017-08-11T08:47:15.700Z,100673.34
2017-08-11T08:49:44.055Z,100669.94
2017-08-11T08:52:12.817Z,100669.78
2017-08-11T08:54:41.181Z,100673.94
2017-08-11T08:57:09.531Z,100669.50
2017-08-11T08:59:38.127Z,100672.38
2017-08-11T09:02:06.480Z,100670.23
2017-08-11T09:04:34.836Z,100676.27
2017-08-11T09:07:03.828Z,100681.71
2017-08-11T09:09:32.659Z,100686.85
2017-08-11T09:12:01.023Z,100691.11
2017-08-11T09:14:29.385Z,100707.17
2017-08-11T09:16:58.148Z,100714.98
2017-08-11T09:19:26.501Z,100726.20
2017-08-11T09:21:54.873Z,100731.41
2017-08-11T09:24:41.048Z,100738.70
2017-08-11T09:27:27.091Z,100734.27
2017-08-11T09:30:13.447Z,100730.75
2017-08-11T09:33:12.526Z,100728.11
2017-08-11T09:35:59.035Z,100736.73
2017-08-11T09:38:27.783Z,100727.39
2017-08-11T09:40:56.126Z,100725.18
2017-08-11T09:43:24.487Z,100720.72
2017-08-11T09:45:52.841Z,100715.00
2017-08-11T09:48:21.194Z,100718.56
2017-08-11T09:50:49.549Z,100718.06
2017-08-11T09:53:17.908Z,100725.20
2017-08-11T09:55:46.298Z,100726.39
2017-08-11T09:58:14.794Z,100731.97
2017-08-11T10:00:43.161Z,100740.47
2017-08-11T10:03:11.807Z,100752.31
2017-08-11T10:05:40.568Z,100742.84
2017-08-11T10:08:09.307Z,100736.19
2017-08-11T10:10:37.673Z,100727.91
2017-08-11T10:13:06.064Z,100722.06
2017-08-11T10:15:34.445Z,100715.72
2017-08-11T10:18:02.796Z,100698.66
2017-08-11T10:20:31.146Z,100692.75
2017-08-11T10:22:59.492Z,100694.16
2017-08-11T10:25:27.847Z,100684.60
2017-08-11T10:27:56.601Z,100681.03
2017-08-11T10:30:24.965Z,100674.87
2017-08-11T10:32:53.316Z,100669.38
2017-08-11T10:35:21.834Z,100656.86
2017-08-11T10:37:50.188Z,100656.58
2017-08-11T10:40:18.544Z,100657.30
2017-08-11T10:42:47.300Z,100659.09
2017-08-11T10:45:15.649Z,100648.61
2017-08-11T10:47:44.027Z,100643.80
2017-08-11T10:50:12.374Z,100638.23
2017-08-11T10:52:40.745Z,100631.47
2017-08-11T10:55:09.108Z,100623.23
2017-08-11T10:57:38.050Z,100626.84
2017-08-11T11:00:06.428Z,100621.08
2017-08-11T11:02:34.775Z,100614.52
2017-08-11T11:05:03.547Z,100601.20
2017-08-11T11:07:31.908Z,100598.33
2017-08-11T11:10:00.268Z,100586.20
2017-08-11T11:12:28.661Z,100574.22
2017-08-11T11:14:57.016Z,100576.13
2017-08-11T11:17:25.368Z,100567.52
2017-08-11T11:19:53.723Z,100552.84
2017-08-11T11:22:22.084Z,100524.33
2017-08-11T11:24:50.612Z,100521.12
2017-08-11T11:27:18.965Z,100507.03
2017-08-11T11:29:47.707Z,100505.93
2017-08-11T11:32:16.062Z,100499.91
2017-08-11T11:34:44.407Z,100506.23
2017-08-11T11:37:13.169Z,100513.61
2017-08-11T11:39:41.789Z,100526.27
2017-08-11T11:42:10.539Z,100555.66
2017-08-11T11:44:38.932Z,100574.25
2017-08-11T11:47:07.599Z,100583.95
2017-08-11T11:49:35.956Z,100601.13
2017-08-11T11:52:04.485Z,100599.66
2017-08-11T11:54:32.845Z,100609.59
2017-08-11T11:57:01.192Z,100647.37
2017-08-11T11:59:29.556Z,100658.19
2017-08-11T12:01:57.906Z,100660.75
2017-08-11T12:04:26.276Z,100668.97
2017-08-11T12:06:54.628Z,100666.89
2017-08-11T12:09:22.987Z,100675.50
2017-08-11T12:11:51.350Z,100685.28
2017-08-11T12:14:20.432Z,100691.13
2017-08-11T12:16:48.798Z,100680.98
2017-08-11T12:19:17.457Z,100691.63
2017-08-11T12:21:45.813Z,100692.41
2017-08-11T12:24:14.172Z,100703.08
2017-08-11T12:26:42.524Z,100717.19
2017-08-11T12:29:10.882Z,100722.73
2017-08-11T12:31:39.254Z,100726.04
2017-08-11T12:34:07.613Z,100734.20
2017-08-11T12:36:35.963Z,100727.17
2017-08-11T12:39:04.719Z,100729.45
2017-08-11T12:41:33.075Z,100708.68
2017-08-11T12:44:01.419Z,100715.63
2017-08-11T12:46:29.793Z,100710.37
2017-08-11T12:48:58.149Z,100715.71
2017-08-11T12:51:26.525Z,100709.80
2017-08-11T12:53:54.876Z,100704.24
2017-08-11T12:56:23.245Z,100698.28
2017-08-11T12:58:51.610Z,100695.70
2017-08-11T13:01:19.968Z,100690.39
2017-08-11T13:03:48.346Z,100691.41
2017-08-11T13:06:16.691Z,100679.53
2017-08-11T13:08:45.056Z,100674.53
2017-08-11T13:11:13.412Z,100675.66
2017-08-11T13:13:41.774Z,100690.61
2017-08-11T13:16:10.137Z,100671.08
2017-08-11T13:18:38.976Z,100637.48
2017-08-11T13:21:07.329Z,100652.91
2017-08-11T13:23:35.837Z,100647.39
2017-08-11T13:26:04.196Z,100632.17
2017-08-11T13:28:32.564Z,100630.16
2017-08-11T13:31:00.937Z,100621.19
2017-08-11T13:33:29.283Z,100587.83
2017-08-11T13:35:57.644Z,100590.41
2017-08-11T13:38:26.005Z,100567.98
2017-08-11T13:40:55.009Z,100579.66
2017-08-11T13:43:23.352Z,100594.25
2017-08-11T13:45:51.702Z,100573.31
2017-08-11T13:48:20.461Z,100570.28
2017-08-11T13:50:49.022Z,100562.94
2017-08-11T13:53:17.390Z,100558.02
2017-08-11T13:55:45.749Z,100523.85
2017-08-11T13:58:14.116Z,100533.35
2017-08-11T14:00:42.956Z,100549.53
2017-08-11T14:03:11.588Z,100559.78
2017-08-11T14:05:40.330Z,100542.45
2017-08-11T14:08:08.687Z,100545.57
2017-08-11T14:10:37.041Z,100548.38
2017-08-11T14:13:06.127Z,100545.03
2017-08-11T14:15:34.866Z,100530.20
2017-08-11T14:18:03.228Z,100545.86
2017-08-11T14:20:31.595Z,100565.54
2017-08-11T14:22:59.954Z,100567.46
2017-08-11T14:25:28.725Z,100566.08
2017-08-11T14:27:57.076Z,100543.72
2017-08-11T14:30:25.445Z,100543.63
2017-08-11T14:32:53.804Z,100544.16
2017-08-11T14:35:22.404Z,100549.37
2017-08-11T14:37:50.751Z,100533.84
2017-08-11T14:40:19.105Z,100525.13
2017-08-11T14:42:47.459Z,100535.53
2017-08-11T14:45:15.839Z,100536.95
2017-08-11T14:47:44.201Z,100543.13
2017-08-11T14:50:12.547Z,100541.17
2017-08-11T14:52:41.304Z,100532.95
2017-08-11T14:55:09.719Z,100555.33
2017-08-11T14:57:38.481Z,100597.11
2017-08-11T15:00:06.836Z,100618.50
2017-08-11T15:02:35.320Z,100633.73
2017-08-11T15:05:03.681Z,100634.11
2017-08-11T15:07:32.075Z,100602.77
2017-08-11T15:10:00.436Z,100592.67
2017-08-11T15:12:28.788Z,100608.06
2017-08-11T15:14:57.539Z,100613.64
2017-08-11T15:17:25.896Z,100622.45
2017-08-11T15:19:54.532Z,100619.55
2017-08-11T15:22:23.289Z,100614.64
2017-08-11T15:24:51.995Z,100620.27
2017-08-11T15:27:20.339Z,100622.28
2017-08-11T15:29:48.698Z,100620.10
2017-08-11T15:32:17.062Z,100616.95
2017-08-11T15:34:45.407Z,100610.80
2017-08-11T15:37:13.766Z,100619.36
2017-08-11T15:39:42.128Z,100608.44
2017-08-11T15:42:10.479Z,100603.45
2017-08-11T15:44:38.827Z,100601.29
2017-08-11T15:47:07.290Z,100600.42
2017-08-11T15:49:35.650Z,100606.87
2017-08-11T15:52:04.001Z,100606.55
2017-08-11T15:54:32.373Z,100593.53
2017-08-11T15:57:00.729Z,100590.35
2017-08-11T15:59:29.100Z,100594.16
2017-08-11T16:01:57.461Z,100591.34
2017-08-11T16:04:26.075Z,100582.09
2017-08-11T16:06:54.823Z,100587.38
2017-08-11T16:09:23.193Z,100589.72
2017-08-11T16:11:51.543Z,100557.03
2017-08-11T16:14:19.904Z,100520.05
2017-08-11T16:16:48.648Z,100433.13
2017-08-11T16:19:17.330Z,100310.05
2017-08-11T16:21:45.692Z,100303.83
2017-08-11T16:24:14.047Z,100326.71
2017-08-11T16:26:42.813Z,100385.89
2017-08-11T16:29:11.159Z,100426.52
2017-08-11T16:31:39.525Z,100503.43
2017-08-11T16:34:07.880Z,100551.20
2017-08-11T16:36:36.252Z,100533.41
2017-08-11T16:39:05.005Z,100514.98
2017-08-11T16:41:33.572Z,100498.50
2017-08-11T16:44:01.943Z,100473.73
2017-08-11T16:46:30.305Z,100474.97
2017-08-11T16:48:58.685Z,100456.96
2017-08-11T16:51:27.031Z,100467.75
2017-08-11T16:53:55.804Z,100477.36
2017-08-11T16:56:24.156Z,100461.03
2017-08-11T16:58:52.520Z,100442.78
2017-08-11T17:01:20.881Z,100441.67
2017-08-11T17:03:49.749Z,100406.83
2017-08-11T17:06:18.487Z,100377.30
2017-08-11T17:08:46.854Z,100401.03
2017-08-11T17:11:15.210Z,100428.22
2017-08-11T17:13:43.558Z,100473.15
2017-08-11T17:16:11.924Z,100471.86
2017-08-11T17:18:40.267Z,100479.15
2017-08-11T17:21:08.627Z,100477.75
2017-08-11T17:23:36.988Z,100459.44
2017-08-11T17:26:05.931Z,100440.44
2017-08-11T17:28:34.301Z,100456.56
2017-08-11T17:31:02.651Z,100470.72
2017-08-11T17:33:31.408Z,100469.36
2017-08-11T17:35:59.843Z,100461.41
2017-08-11T17:38:28.199Z,100469.08
2017-08-11T17:40:56.945Z,100451.38
2017-08-11T17:43:25.313Z,100464.72
2017-08-11T17:45:53.659Z,100470.87
2017-08-11T17:48:22.239Z,100448.90
2017-08-11T17:50:50.595Z,100479.05
2017-08-11T17:53:19.348Z,100440.74
2017-08-11T17:55:47.706Z,100433.16
2017-08-11T17:58:16.064Z,100461.94
2017-08-11T18:00:44.419Z,100472.50
2017-08-11T18:03:12.776Z,100470.94
2017-08-11T18:05:41.136Z,100471.24
2017-08-11T18:08:09.479Z,100465.80
2017-08-11T18:10:38.001Z,100463.94
2017-08-11T18:13:06.357Z,100466.06
2017-08-11T18:15:34.708Z,100463.89
2017-08-11T18:18:03.472Z,100468.76
2017-08-11T18:20:31.815Z,100472.84
2017-08-11T18:23:00.180Z,100481.98
2017-08-11T18:25:28.546Z,100474.13
2017-08-11T18:27:56.903Z,100472.88
2017-08-11T18:30:25.665Z,100469.34
2017-08-11T18:32:54.136Z,100464.02
2017-08-11T18:35:22.480Z,100464.05
2017-08-11T18:37:50.826Z,100467.27
2017-08-11T18:40:19.179Z,100462.44
2017-08-11T18:42:47.540Z,100463.45
2017-08-11T18:45:15.909Z,100465.47
2017-08-11T18:47:44.264Z,100459.98
2017-08-11T18:50:12.633Z,100467.89
2017-08-11T18:52:41.472Z,100488.11
2017-08-11T18:55:09.828Z,100482.56
2017-08-11T18:57:38.174Z,100485.66
2017-08-11T19:00:06.935Z,100493.79
2017-08-11T19:02:35.296Z,100503.55
2017-08-11T19:05:03.879Z,100508.02
2017-08-11T19:07:32.242Z,100515.09
2017-08-11T19:10:00.590Z,100518.73
2017-08-11T19:12:29.345Z,100530.15
2017-08-11T19:14:57.714Z,100547.28
2017-08-11T19:17:26.179Z,100547.16
2017-08-11T19:19:54.537Z,100545.41
2017-08-11T19:22:22.904Z,100548.50
2017-08-11T19:24:51.883Z,100547.08
2017-08-11T19:27:20.848Z,100547.31
2017-08-11T19:29:49.208Z,100538.05
2017-08-11T19:32:17.556Z,100536.38
2017-08-11T19:34:45.910Z,100538.94
2017-08-11T19:37:14.260Z,100545.83
2017-08-11T19:39:42.620Z,100541.94
2017-08-11T19:42:10.977Z,100531.22
2017-08-11T19:44:39.370Z,100510.50
2017-08-11T19:47:07.719Z,100503.86
2017-08-11T19:49:36.467Z,100495.31
2017-08-11T19:52:04.813Z,100485.89
2017-08-11T19:54:33.313Z,100481.05
2017-08-11T19:57:02.565Z,100483.62
2017-08-11T19:59:31.311Z,100473.05
2017-08-11T20:01:59.663Z,100466.69
2017-08-11T20:04:28.010Z,100463.72
2017-08-11T20:06:56.768Z,100457.56
2017-08-11T20:09:25.107Z,100469.23
2017-08-11T20:11:53.472Z,100472.60
2017-08-11T20:14:21.834Z,100476.52
2017-08-11T20:16:50.596Z,100481.24
2017-08-11T20:19:20.553Z,100481.61
2017-08-11T20:21:49.096Z,100484.25
2017-08-11T20:24:17.442Z,100480.72
2017-08-11T20:26:45.795Z,100485.41
2017-08-11T20:29:14.151Z,100480.72
2017-08-11T20:31:42.496Z,100481.91
2017-08-11T20:34:10.871Z,100475.84
2017-08-11T20:36:39.233Z,100472.70
2017-08-11T20:39:07.879Z,100464.83
2017-08-11T20:41:36.641Z,100464.52
2017-08-11T20:44:05.009Z,100472.30
2017-08-11T20:46:33.368Z,100475.07
2017-08-11T20:49:01.733Z,100474.05
2017-08-11T20:51:30.098Z,100470.59
2017-08-11T20:53:58.875Z,100459.98
2017-08-11T20:56:27.719Z,100466.66
2017-08-11T20:58:56.312Z,100471.59
2017-08-11T21:01:24.672Z,100487.82
2017-08-11T21:03:53.032Z,100490.91
2017-08-11T21:06:21.387Z,100485.80
2017-08-11T21:08:49.775Z,100480.44
2017-08-11T21:11:18.607Z,100481.34
2017-08-11T21:13:46.963Z,100470.55
2017-08-11T21:16:15.584Z,100463.38
2017-08-11T21:18:43.946Z,100465.58
2017-08-11T21:21:12.332Z,100456.38
2017-08-11T21:23:40.712Z,100446.76
2017-08-11T21:26:09.072Z,100450.22
2017-08-11T21:28:37.436Z,100446.76
2017-08-11T21:31:05.787Z,100437.98
2017-08-11T21:33:34.143Z,100443.71
2017-08-11T21:36:02.497Z,100437.52
2017-08-11T21:38:30.866Z,100436.20
2017-08-11T21:40:59.220Z,100437.72
2017-08-11T21:43:28.164Z,100445.53
2017-08-11T21:45:56.517Z,100450.61
2017-08-11T21:48:25.171Z,100456.91
2017-08-11T21:50:53.523Z,100455.75
2017-08-11T21:53:21.871Z,100460.05
2017-08-11T21:55:50.367Z,100460.33
2017-08-11T21:58:18.720Z,100462.50
2017-08-11T22:00:47.070Z,100455.75
2017-08-11T22:03:15.842Z,100447.19
2017-08-11T22:05:44.199Z,100442.05
2017-08-11T22:08:12.570Z,100440.18
2017-08-11T22:10:40.915Z,100431.91
2017-08-11T22:13:09.285Z,100420.11
2017-08-11T22:15:38.032Z,100422.69
2017-08-11T22:18:06.530Z,100425.41
2017-08-11T22:20:34.915Z,100417.63
2017-08-11T22:23:03.509Z,100422.89
2017-08-11T22:25:32.358Z,100427.82
2017-08-11T22:28:00.828Z,100429.84
2017-08-11T22:30:29.197Z,100439.52
2017-08-11T22:32:57.547Z,100433.91
2017-08-11T22:35:25.888Z,100428.21
2017-08-11T22:37:54.102Z,100422.47
2017-08-11T22:40:22.398Z,100425.30
2017-08-11T22:42:50.305Z,100435.65
2017-08-11T22:45:18.230Z,100439.23
2017-08-11T22:47:46.140Z,100442.04
2017-08-11T22:50:14.056Z,100433.23
2017-08-11T22:52:42.351Z,100425.23
2017-08-11T22:55:10.599Z,100427.35
2017-08-11T22:57:38.905Z,100416.73
2017-08-11T23:00:06.820Z,100417.22
2017-08-11T23:02:34.727Z,100416.91
2017-08-11T23:05:03.033Z,100419.64
2017-08-11T23:07:30.934Z,100414.06
2017-08-11T23:09:58.836Z,100417.59
2017-08-11T23:12:27.250Z,100421.95
2017-08-11T23:14:55.155Z,100419.78
2017-08-11T23:17:23.060Z,100412.41
2017-08-11T23:19:51.369Z,100419.03
2017-08-11T23:22:19.679Z,100413.77
2017-08-11T23:24:47.588Z,100413.05
2017-08-11T23:27:15.884Z,100411.11
2017-08-11T23:29:43.796Z,100419.17
2017-08-11T23:32:11.695Z,100417.45
2017-08-11T23:34:40.001Z,100426.80
2017-08-11T23:37:07.889Z,100416.22
2017-08-11T23:39:35.794Z,100415.40
2017-08-11T23:42:03.708Z,100415.34
2017-08-11T23:44:31.873Z,100413.83
2017-08-11T23:46:59.767Z,100421.34
2017-08-11T23:49:27.663Z,100418.03
2017-08-11T23:51:55.580Z,100410.23
2017-08-11T23:54:23.479Z,100409.22
2017-08-11T23:56:51.395Z,100423.70
2017-08-11T23:59:19.692Z,100422.42
